createdAt,value
2019-03-21T00:01:10.935Z,67.25
2019-03-21T00:03:40.583Z,67.14
2019-03-21T00:06:11.490Z,67.22
2019-03-21T00:08:41.079Z,66.75
2019-03-21T00:11:45.859Z,66.88
2019-03-21T00:14:23.820Z,67.80
2019-03-21T00:16:53.237Z,67.83
2019-03-21T00:19:22.602Z,67.81
2019-03-21T00:21:52.211Z,68.06
2019-03-21T00:24:21.776Z,67.17
2019-03-21T00:26:51.199Z,67.03
2019-03-21T00:29:20.922Z,66.81
2019-03-21T00:31:50.359Z,66.80
2019-03-21T00:34:19.797Z,66.86
2019-03-21T00:36:49.477Z,66.76
2019-03-21T00:39:19.101Z,67.04
2019-03-21T00:41:48.428Z,67.58
2019-03-21T00:44:20.401Z,68.08
2019-03-21T00:46:51.714Z,68.20
2019-03-21T00:49:31.336Z,68.28
2019-03-21T00:52:07.680Z,68.81
2019-03-21T00:54:37.032Z,68.80
2019-03-21T00:57:06.463Z,68.80
2019-03-21T00:59:35.864Z,68.24
2019-03-21T01:02:05.354Z,68.70
2019-03-21T01:04:35.270Z,68.60
2019-03-21T01:07:05.560Z,69.26
2019-03-21T01:09:35.173Z,69.47
2019-03-21T01:12:04.612Z,69.12
2019-03-21T01:14:34.093Z,68.89
2019-03-21T01:17:03.630Z,68.81
2019-03-21T01:19:33.424Z,68.74
2019-03-21T01:22:02.847Z,68.83
2019-03-21T01:24:32.243Z,69.04
2019-03-21T01:27:01.632Z,69.16
2019-03-21T01:29:31.065Z,70.27
2019-03-21T01:32:00.464Z,70.91
2019-03-21T01:34:29.888Z,71.15
2019-03-21T01:36:59.326Z,71.64
2019-03-21T01:39:28.778Z,71.72
2019-03-21T01:41:58.388Z,72.30
2019-03-21T01:44:27.900Z,72.35
2019-03-21T01:46:57.530Z,72.71
2019-03-21T01:49:27.008Z,72.81
2019-03-21T01:51:56.537Z,73.82
2019-03-21T01:54:26.033Z,74.90
2019-03-21T01:56:55.491Z,75.07
2019-03-21T01:59:24.905Z,74.85
2019-03-21T02:01:54.342Z,74.02
2019-03-21T02:04:23.773Z,73.89
2019-03-21T02:06:53.075Z,73.98
2019-03-21T02:09:22.416Z,73.91
2019-03-21T02:11:51.748Z,73.53
2019-03-21T02:14:21.119Z,73.83
2019-03-21T02:16:50.507Z,72.98
2019-03-21T02:19:19.943Z,72.82
2019-03-21T02:21:49.234Z,73.18
2019-03-21T02:24:18.737Z,72.94
2019-03-21T02:26:48.210Z,72.91
2019-03-21T02:29:17.961Z,73.23
2019-03-21T02:31:47.330Z,73.35
2019-03-21T02:34:16.853Z,73.62
2019-03-21T02:36:47.129Z,74.38
2019-03-21T02:39:16.796Z,74.54
2019-03-21T02:41:46.274Z,74.94
2019-03-21T02:44:15.746Z,75.04
2019-03-21T02:46:45.180Z,74.87
2019-03-21T02:49:14.660Z,74.58
2019-03-21T02:51:44.044Z,75.46
2019-03-21T02:54:13.542Z,75.76
2019-03-21T02:56:43.497Z,75.66
2019-03-21T02:59:12.882Z,75.73
2019-03-21T03:01:42.461Z,76.08
2019-03-21T03:04:11.809Z,73.66
2019-03-21T03:06:41.218Z,72.37
2019-03-21T03:09:10.662Z,72.59
2019-03-21T03:11:40.199Z,72.69
2019-03-21T03:14:09.628Z,73.95
2019-03-21T03:16:39.140Z,74.05
2019-03-21T03:19:08.677Z,75.06
2019-03-21T03:21:38.145Z,75.37
2019-03-21T03:24:08.529Z,74.81
2019-03-21T03:26:38.097Z,74.62
2019-03-21T03:29:08.687Z,74.57
2019-03-21T03:31:38.035Z,74.26
2019-03-21T03:34:07.433Z,74.19
2019-03-21T03:36:36.971Z,74.41
2019-03-21T03:39:08.455Z,74.96
2019-03-21T03:41:37.901Z,75.14
2019-03-21T03:44:07.306Z,75.16
2019-03-21T03:46:36.701Z,75.42
2019-03-21T03:49:06.007Z,75.52
2019-03-21T03:51:35.573Z,75.58
2019-03-21T03:54:05.257Z,75.37
2019-03-21T03:56:34.883Z,75.80
2019-03-21T03:59:04.401Z,76.24
2019-03-21T04:01:33.946Z,76.55
2019-03-21T04:04:03.350Z,76.38
2019-03-21T04:06:33.026Z,76.70
2019-03-21T04:09:02.564Z,76.55
2019-03-21T04:11:32.165Z,76.21
2019-03-21T04:14:01.684Z,76.17
2019-03-21T04:16:31.138Z,75.72
2019-03-21T04:19:00.550Z,75.85
2019-03-21T04:21:30.011Z,76.19
2019-03-21T04:24:00.126Z,76.16
2019-03-21T04:26:30.771Z,75.99
2019-03-21T04:29:00.201Z,75.83
2019-03-21T04:31:29.831Z,76.42
2019-03-21T04:34:00.962Z,76.94
2019-03-21T04:36:30.337Z,77.38
2019-03-21T04:38:59.815Z,76.84
2019-03-21T04:41:29.527Z,76.82
2019-03-21T04:43:59.031Z,76.97
2019-03-21T04:46:28.484Z,77.20
2019-03-21T04:48:57.787Z,76.93
2019-03-21T04:51:27.194Z,76.78
2019-03-21T04:53:56.491Z,76.58
2019-03-21T04:56:25.968Z,76.60
2019-03-21T04:58:55.465Z,76.09
2019-03-21T05:01:24.945Z,75.97
2019-03-21T05:03:54.456Z,76.25
2019-03-21T05:06:24.031Z,75.33
2019-03-21T05:08:53.439Z,74.94
2019-03-21T05:11:22.994Z,74.93
2019-03-21T05:13:52.385Z,74.19
2019-03-21T05:16:21.873Z,74.73
2019-03-21T05:18:51.842Z,75.47
2019-03-21T05:21:21.362Z,75.43
2019-03-21T05:23:50.759Z,75.59
2019-03-21T05:26:20.291Z,76.02
2019-03-21T05:28:49.816Z,76.15
2019-03-21T05:31:22.915Z,74.75
2019-03-21T05:33:52.237Z,73.92
2019-03-21T05:36:21.735Z,73.83
2019-03-21T05:38:51.239Z,73.60
2019-03-21T05:41:20.722Z,74.10
2019-03-21T05:43:53.402Z,74.74
2019-03-21T05:46:27.003Z,74.25
2019-03-21T05:48:54.014Z,74.91
2019-03-21T05:51:23.545Z,75.35
2019-03-21T05:53:53.086Z,75.25
2019-03-21T05:56:22.599Z,74.98
2019-03-21T05:58:52.243Z,76.29
2019-03-21T06:01:21.763Z,76.32
2019-03-21T06:03:52.133Z,76.38
2019-03-21T06:06:42.431Z,76.44
2019-03-21T06:09:13.349Z,75.74
2019-03-21T06:11:45.391Z,75.01
2019-03-21T06:14:14.764Z,72.55
2019-03-21T06:16:44.418Z,72.57
2019-03-21T06:19:40.085Z,73.22
2019-03-21T06:22:32.717Z,73.32
2019-03-21T06:25:31.973Z,73.87
2019-03-21T06:28:01.551Z,73.13
2019-03-21T06:30:31.088Z,72.80
2019-03-21T06:33:00.625Z,70.62
2019-03-21T06:35:30.155Z,69.34
2019-03-21T06:37:59.504Z,69.87
2019-03-21T06:40:28.941Z,69.46
2019-03-21T06:42:58.458Z,68.71
2019-03-21T06:45:28.812Z,67.68
2019-03-21T06:47:58.279Z,65.74
2019-03-21T06:50:27.876Z,66.07
2019-03-21T06:52:57.365Z,67.59
2019-03-21T06:55:26.824Z,67.12
2019-03-21T06:57:56.336Z,66.11
2019-03-21T07:00:25.843Z,66.62
2019-03-21T07:02:55.370Z,66.23
2019-03-21T07:05:26.758Z,65.50
2019-03-21T07:07:56.063Z,65.28
2019-03-21T07:10:25.505Z,66.63
2019-03-21T07:12:54.903Z,65.57
2019-03-21T07:15:24.488Z,64.60
2019-03-21T07:17:54.064Z,64.35
2019-03-21T07:20:23.370Z,63.99
2019-03-21T07:22:52.783Z,63.50
2019-03-21T07:25:22.322Z,63.09
2019-03-21T07:27:51.986Z,61.99
2019-03-21T07:30:21.421Z,62.72
2019-03-21T07:32:50.893Z,61.87
2019-03-21T07:35:20.474Z,61.14
2019-03-21T07:37:49.962Z,61.40
2019-03-21T07:40:19.503Z,61.90
2019-03-21T07:42:48.997Z,61.95
2019-03-21T07:45:18.551Z,60.62
2019-03-21T07:47:48.012Z,59.75
2019-03-21T07:50:17.506Z,59.19
2019-03-21T07:52:47.007Z,58.92
2019-03-21T07:55:16.433Z,58.65
2019-03-21T07:57:45.978Z,57.41
2019-03-21T08:00:15.816Z,57.05
2019-03-21T08:02:45.421Z,57.35
2019-03-21T08:05:15.659Z,58.06
2019-03-21T08:07:45.697Z,57.36
2019-03-21T08:10:15.431Z,57.55
2019-03-21T08:12:44.962Z,56.86
2019-03-21T08:15:14.686Z,56.41
2019-03-21T08:17:44.206Z,55.61
2019-03-21T08:20:14.267Z,55.19
2019-03-21T08:22:43.851Z,55.04
2019-03-21T08:25:13.757Z,54.87
2019-03-21T08:27:43.289Z,53.71
2019-03-21T08:30:28.902Z,52.24
2019-03-21T08:32:58.438Z,51.97
2019-03-21T08:35:27.991Z,49.91
2019-03-21T08:37:57.567Z,49.91
2019-03-21T08:40:27.123Z,50.17
2019-03-21T08:42:57.029Z,50.32
2019-03-21T08:45:26.416Z,50.72
2019-03-21T08:47:55.973Z,51.48
2019-03-21T08:50:25.456Z,50.95
2019-03-21T08:52:54.902Z,50.80
2019-03-21T08:55:24.527Z,49.81
2019-03-21T08:57:54.246Z,49.22
2019-03-21T09:00:33.738Z,48.84
2019-03-21T09:02:58.392Z,48.63
2019-03-21T09:05:27.997Z,49.14
2019-03-21T09:07:57.482Z,49.19
2019-03-21T09:10:27.021Z,49.02
2019-03-21T09:12:56.554Z,47.65
2019-03-21T09:15:26.120Z,46.97
2019-03-21T09:17:55.782Z,46.39
2019-03-21T09:20:25.520Z,45.33
2019-03-21T09:22:56.673Z,45.02
2019-03-21T09:25:26.255Z,43.70
2019-03-21T09:28:02.475Z,42.18
2019-03-21T09:30:26.830Z,42.50
2019-03-21T09:32:56.384Z,41.57
2019-03-21T09:35:25.893Z,41.02
2019-03-21T09:37:55.349Z,40.14
2019-03-21T09:40:24.760Z,39.94
2019-03-21T09:42:54.303Z,39.47
2019-03-21T09:45:23.741Z,39.19
2019-03-21T09:47:53.319Z,37.94
2019-03-21T09:50:27.947Z,38.45
2019-03-21T09:52:58.198Z,38.19
2019-03-21T09:55:27.705Z,38.77
2019-03-21T09:57:57.287Z,37.83
2019-03-21T10:00:31.894Z,37.81
2019-03-21T10:03:01.484Z,36.92
2019-03-21T10:05:31.614Z,36.67
2019-03-21T10:08:01.030Z,36.87
2019-03-21T10:10:31.479Z,37.01
2019-03-21T10:13:01.153Z,36.85
2019-03-21T10:15:30.772Z,37.05
2019-03-21T10:18:00.494Z,37.38
2019-03-21T10:20:30.024Z,36.67
2019-03-21T10:22:59.517Z,35.69
2019-03-21T10:25:29.046Z,34.82
2019-03-21T10:27:58.747Z,35.02
2019-03-21T10:30:34.102Z,34.29
2019-03-21T10:33:05.433Z,34.28
2019-03-21T10:35:34.952Z,34.25
2019-03-21T10:38:05.059Z,33.37
2019-03-21T10:40:34.614Z,32.31
2019-03-21T10:43:04.320Z,31.91
2019-03-21T10:45:33.841Z,31.58
2019-03-21T10:48:03.565Z,31.59
2019-03-21T10:50:34.443Z,31.61
2019-03-21T10:53:04.205Z,30.96
2019-03-21T10:55:33.934Z,31.13
2019-03-21T10:58:03.708Z,31.65
2019-03-21T11:00:33.282Z,31.90
2019-03-21T11:03:04.518Z,30.30
2019-03-21T11:05:34.012Z,30.93
2019-03-21T11:08:03.675Z,31.56
2019-03-21T11:10:33.185Z,30.95
2019-03-21T11:13:02.821Z,30.46
2019-03-21T11:15:33.056Z,30.13
2019-03-21T11:18:02.554Z,30.25
2019-03-21T11:20:40.278Z,29.94
2019-03-21T11:23:10.390Z,29.92
2019-03-21T11:25:40.100Z,29.61
2019-03-21T11:28:11.026Z,29.88
2019-03-21T11:30:44.902Z,29.49
2019-03-21T11:33:14.373Z,28.74
2019-03-21T11:35:43.771Z,29.20
2019-03-21T11:38:13.238Z,29.28
2019-03-21T11:40:42.691Z,29.61
2019-03-21T11:43:17.033Z,29.67
2019-03-21T11:45:47.813Z,29.05
2019-03-21T11:48:17.647Z,29.23
2019-03-21T11:50:47.206Z,29.26
2019-03-21T11:53:16.746Z,29.83
2019-03-21T11:55:46.275Z,28.74
2019-03-21T11:58:17.663Z,28.43
2019-03-21T12:00:46.790Z,28.80
2019-03-21T12:03:16.331Z,28.64
2019-03-21T12:05:45.879Z,29.16
2019-03-21T12:08:15.424Z,28.58
2019-03-21T12:10:44.932Z,28.35
2019-03-21T12:13:14.407Z,28.55
2019-03-21T12:15:44.121Z,28.62
2019-03-21T12:18:13.567Z,28.88
2019-03-21T12:20:43.173Z,29.11
2019-03-21T12:23:12.577Z,28.59
2019-03-21T12:25:42.114Z,28.43
2019-03-21T12:28:11.408Z,27.93
2019-03-21T12:30:44.066Z,27.77
2019-03-21T12:33:13.561Z,28.12
2019-03-21T12:35:43.067Z,26.70
2019-03-21T12:38:12.685Z,27.19
2019-03-21T12:40:42.085Z,27.19
2019-03-21T12:43:11.670Z,27.31
2019-03-21T12:45:41.097Z,27.28
2019-03-21T12:48:10.559Z,27.50
2019-03-21T12:50:40.117Z,26.73
2019-03-21T12:53:09.655Z,26.63
2019-03-21T12:55:39.299Z,26.28
2019-03-21T12:58:08.853Z,26.87
2019-03-21T13:00:42.840Z,26.86
2019-03-21T13:03:13.814Z,27.14
2019-03-21T13:05:43.549Z,27.02
2019-03-21T13:08:13.113Z,26.91
2019-03-21T13:10:42.655Z,26.78
2019-03-21T13:13:12.384Z,26.32
2019-03-21T13:15:41.875Z,25.85
2019-03-21T13:18:11.692Z,25.31
2019-03-21T13:20:41.259Z,24.83
2019-03-21T13:23:10.682Z,25.40
2019-03-21T13:25:40.686Z,25.56
2019-03-21T13:28:10.164Z,25.67
2019-03-21T13:30:39.636Z,25.44
2019-03-21T13:33:09.115Z,24.52
2019-03-21T13:35:38.515Z,24.95
2019-03-21T13:38:07.895Z,24.87
2019-03-21T13:40:37.244Z,24.10
2019-03-21T13:43:06.953Z,24.00
2019-03-21T13:45:36.493Z,24.08
2019-03-21T13:48:06.204Z,23.65
2019-03-21T13:50:35.773Z,21.40
2019-03-21T13:53:17.893Z,21.82
2019-03-21T13:55:36.547Z,20.55
2019-03-21T13:58:06.145Z,20.57
2019-03-21T14:00:35.608Z,20.10
2019-03-21T14:03:05.108Z,18.97
2019-03-21T14:05:34.593Z,18.99
2019-03-21T14:08:04.249Z,19.28
2019-03-21T14:10:33.755Z,19.74
2019-03-21T14:13:03.373Z,18.93
2019-03-21T14:15:32.810Z,18.82
2019-03-21T14:18:02.390Z,17.21
2019-03-21T14:20:31.877Z,17.90
2019-03-21T14:23:01.565Z,18.13
2019-03-21T14:25:31.129Z,18.49
2019-03-21T14:28:00.603Z,19.25
2019-03-21T14:30:30.154Z,18.99
2019-03-21T14:32:59.768Z,17.55
2019-03-21T14:35:29.212Z,17.94
2019-03-21T14:37:58.690Z,18.43
2019-03-21T14:40:28.079Z,17.70
2019-03-21T14:42:57.674Z,17.08
2019-03-21T14:45:27.107Z,17.76
2019-03-21T14:47:56.489Z,18.35
2019-03-21T14:50:26.144Z,18.14
2019-03-21T14:52:55.566Z,17.91
2019-03-21T14:55:25.106Z,19.26
2019-03-21T14:57:54.580Z,18.59
2019-03-21T15:00:24.084Z,18.63
2019-03-21T15:02:53.445Z,19.47
2019-03-21T15:05:22.904Z,18.63
2019-03-21T15:07:52.380Z,18.91
2019-03-21T15:10:21.783Z,19.64
2019-03-21T15:12:51.415Z,19.19
2019-03-21T15:15:20.880Z,19.27
2019-03-21T15:17:50.410Z,20.33
2019-03-21T15:20:19.969Z,19.94
2019-03-21T15:22:49.393Z,20.44
2019-03-21T15:25:18.987Z,19.81
2019-03-21T15:27:48.560Z,20.08
2019-03-21T15:30:18.899Z,19.50
2019-03-21T15:32:48.723Z,19.72
2019-03-21T15:35:18.989Z,20.22
2019-03-21T15:37:48.754Z,19.74
2019-03-21T15:40:18.450Z,20.77
2019-03-21T15:42:47.931Z,20.92
2019-03-21T15:45:22.815Z,20.46
2019-03-21T15:47:49.134Z,20.21
2019-03-21T15:50:37.785Z,20.50
2019-03-21T15:53:07.188Z,21.26
2019-03-21T15:55:37.013Z,21.40
2019-03-21T15:58:06.707Z,21.64
2019-03-21T16:00:37.878Z,21.51
2019-03-21T16:03:07.934Z,21.17
2019-03-21T16:05:38.205Z,21.24
2019-03-21T16:08:09.079Z,21.82
2019-03-21T16:10:39.173Z,22.08
2019-03-21T16:13:08.755Z,22.05
2019-03-21T16:15:38.327Z,21.60
2019-03-21T16:18:08.011Z,21.42
2019-03-21T16:20:37.617Z,20.86
2019-03-21T16:23:07.236Z,21.25
2019-03-21T16:25:43.378Z,22.11
2019-03-21T16:28:13.069Z,22.55
2019-03-21T16:30:42.829Z,22.70
2019-03-21T16:33:12.470Z,22.85
2019-03-21T16:35:42.148Z,23.03
2019-03-21T16:38:11.871Z,23.75
2019-03-21T16:40:41.337Z,23.73
2019-03-21T16:43:10.758Z,24.14
2019-03-21T16:45:40.298Z,24.41
2019-03-21T16:48:09.752Z,24.30
2019-03-21T16:50:39.213Z,24.73
2019-03-21T16:53:08.597Z,25.50
2019-03-21T16:55:38.188Z,25.97
2019-03-21T16:58:07.779Z,26.41
2019-03-21T17:00:37.191Z,26.41
2019-03-21T17:03:06.656Z,26.76
2019-03-21T17:05:36.170Z,26.33
2019-03-21T17:08:11.104Z,26.29
2019-03-21T17:10:36.999Z,26.54
2019-03-21T17:13:07.382Z,26.37
2019-03-21T17:15:37.244Z,26.77
2019-03-21T17:18:06.873Z,27.31
2019-03-21T17:20:36.336Z,27.86
2019-03-21T17:23:05.895Z,28.10
2019-03-21T17:25:35.338Z,28.96
2019-03-21T17:28:05.206Z,29.03
2019-03-21T17:30:34.726Z,29.49
2019-03-21T17:33:04.335Z,29.94
2019-03-21T17:35:33.840Z,30.29
2019-03-21T17:38:03.357Z,30.71
2019-03-21T17:40:33.005Z,30.81
2019-03-21T17:43:02.568Z,31.03
2019-03-21T17:45:32.125Z,31.54
2019-03-21T17:48:01.606Z,31.39
2019-03-21T17:50:31.038Z,31.53
2019-03-21T17:53:00.562Z,31.96
2019-03-21T17:55:30.019Z,32.18
2019-03-21T17:57:59.520Z,32.42
2019-03-21T18:00:29.628Z,32.26
2019-03-21T18:03:00.305Z,32.46
2019-03-21T18:05:29.814Z,32.54
2019-03-21T18:07:59.231Z,32.83
2019-03-21T18:10:30.242Z,33.02
2019-03-21T18:13:00.366Z,33.38
2019-03-21T18:15:30.009Z,33.21
2019-03-21T18:17:59.537Z,33.41
2019-03-21T18:20:29.013Z,33.69
2019-03-21T18:22:58.510Z,34.46
2019-03-21T18:25:28.159Z,34.54
2019-03-21T18:27:57.945Z,34.61
2019-03-21T18:30:27.572Z,35.02
2019-03-21T18:32:57.091Z,35.43
2019-03-21T18:35:26.660Z,35.51
2019-03-21T18:37:56.167Z,35.88
2019-03-21T18:40:25.755Z,36.65
2019-03-21T18:42:55.218Z,36.50
2019-03-21T18:45:24.965Z,36.92
2019-03-21T18:47:54.446Z,37.11
2019-03-21T18:50:24.008Z,37.54
2019-03-21T18:52:53.513Z,37.67
2019-03-21T18:55:22.930Z,38.50
2019-03-21T18:57:52.496Z,39.37
2019-03-21T19:00:22.289Z,40.03
2019-03-21T19:02:51.736Z,38.45
2019-03-21T19:05:21.481Z,39.54
2019-03-21T19:08:01.441Z,40.53
2019-03-21T19:10:39.470Z,42.14
2019-03-21T19:13:16.674Z,42.28
2019-03-21T19:15:50.085Z,42.40
2019-03-21T19:18:19.359Z,42.98
2019-03-21T19:20:48.988Z,43.55
2019-03-21T19:23:18.888Z,43.53
2019-03-21T19:25:48.383Z,44.01
2019-03-21T19:28:17.891Z,44.44
2019-03-21T19:30:47.490Z,44.45
2019-03-21T19:33:18.431Z,44.40
2019-03-21T19:35:48.043Z,43.98
2019-03-21T19:38:17.448Z,45.10
2019-03-21T19:40:47.022Z,45.96
2019-03-21T19:43:16.441Z,44.49
2019-03-21T19:45:45.952Z,45.01
2019-03-21T19:48:15.339Z,45.75
2019-03-21T19:50:44.765Z,46.27
2019-03-21T19:53:14.240Z,46.08
2019-03-21T19:55:43.679Z,46.08
2019-03-21T19:58:13.151Z,46.08
2019-03-21T20:00:42.599Z,46.29
2019-03-21T20:03:12.101Z,47.07
2019-03-21T20:05:44.189Z,46.44
2019-03-21T20:08:14.348Z,47.70
2019-03-21T20:10:43.771Z,48.85
2019-03-21T20:13:13.190Z,48.79
2019-03-21T20:15:42.725Z,49.58
2019-03-21T20:18:12.180Z,50.65
2019-03-21T20:20:41.785Z,50.41
2019-03-21T20:23:11.282Z,50.90
2019-03-21T20:25:43.026Z,51.17
2019-03-21T20:28:11.881Z,51.14
2019-03-21T20:30:41.412Z,51.37
2019-03-21T20:33:10.917Z,51.37
2019-03-21T20:35:40.251Z,51.52
2019-03-21T20:38:09.839Z,52.17
2019-03-21T20:40:39.328Z,52.08
2019-03-21T20:43:08.989Z,52.05
2019-03-21T20:45:38.421Z,51.93
2019-03-21T20:48:07.986Z,51.68
2019-03-21T20:50:37.524Z,50.89
2019-03-21T20:53:07.071Z,50.95
2019-03-21T20:55:36.608Z,51.28
2019-03-21T20:58:06.227Z,52.16
2019-03-21T21:00:35.860Z,53.17
2019-03-21T21:03:05.374Z,52.57
2019-03-21T21:05:34.839Z,52.73
2019-03-21T21:08:04.445Z,53.26
2019-03-21T21:10:34.002Z,54.32
2019-03-21T21:13:03.464Z,52.50
2019-03-21T21:15:33.059Z,53.39
2019-03-21T21:18:02.291Z,52.55
2019-03-21T21:20:31.663Z,53.65
2019-03-21T21:23:01.094Z,53.40
2019-03-21T21:25:30.575Z,54.09
2019-03-21T21:28:00.087Z,55.01
2019-03-21T21:30:29.658Z,55.60
2019-03-21T21:32:59.220Z,55.98
2019-03-21T21:35:28.777Z,57.12
2019-03-21T21:37:58.276Z,57.02
2019-03-21T21:40:28.990Z,56.50
2019-03-21T21:42:58.892Z,56.71
2019-03-21T21:45:28.550Z,57.70
2019-03-21T21:47:58.086Z,57.98
2019-03-21T21:50:27.539Z,58.10
2019-03-21T21:52:56.978Z,58.51
2019-03-21T21:55:26.420Z,59.30
2019-03-21T21:57:55.882Z,58.87
2019-03-21T22:00:25.394Z,59.42
2019-03-21T22:02:54.931Z,59.22
2019-03-21T22:05:24.456Z,59.08
2019-03-21T22:07:53.958Z,59.54
2019-03-21T22:10:23.523Z,59.72
2019-03-21T22:12:53.124Z,59.53
2019-03-21T22:15:48.255Z,59.89
2019-03-21T22:18:17.697Z,59.35
2019-03-21T22:20:47.288Z,58.70
2019-03-21T22:23:16.770Z,58.09
2019-03-21T22:25:46.281Z,58.62
2019-03-21T22:28:15.690Z,59.20
2019-03-21T22:30:45.260Z,59.13
2019-03-21T22:33:14.590Z,60.07
2019-03-21T22:35:44.037Z,60.18
2019-03-21T22:38:13.597Z,60.56
2019-03-21T22:40:43.101Z,60.57
2019-03-21T22:43:12.557Z,60.56
2019-03-21T22:45:42.142Z,61.37
2019-03-21T22:48:11.595Z,60.20
2019-03-21T22:50:41.037Z,60.25
2019-03-21T22:53:10.499Z,60.49
2019-03-21T22:55:39.873Z,60.49
2019-03-21T22:58:09.228Z,60.67
2019-03-21T23:00:43.389Z,60.73
2019-03-21T23:03:12.874Z,60.14
2019-03-21T23:05:42.416Z,58.72
2019-03-21T23:08:11.952Z,58.74
2019-03-21T23:10:41.438Z,59.80
2019-03-21T23:13:10.980Z,60.44
2019-03-21T23:15:40.441Z,60.40
2019-03-21T23:18:09.882Z,60.27
2019-03-21T23:20:39.374Z,59.24
2019-03-21T23:23:09.043Z,59.51
2019-03-21T23:25:38.578Z,59.93
2019-03-21T23:28:07.946Z,60.54
2019-03-21T23:30:37.346Z,60.82
2019-03-21T23:33:07.129Z,61.18
2019-03-21T23:35:36.627Z,61.29
2019-03-21T23:38:06.121Z,61.74
2019-03-21T23:40:35.654Z,62.22
2019-03-21T23:43:05.148Z,62.05
2019-03-21T23:45:34.631Z,62.24
2019-03-21T23:48:04.194Z,61.41
2019-03-21T23:50:33.859Z,62.18
2019-03-21T23:53:03.352Z,62.92
2019-03-21T23:55:32.871Z,63.12
2019-03-21T23:58:02.400Z,63.26
